Aeroporto :
LOGIN :

Iscrizione | Disclaimer

   EN    FR    IT 

 










Sommario :    VFR   VFR Marginale   IFR   IFR Intensivo   IFR Molto Intensivo
Visibilità : 
Base nubi : 
>= 8 km
>= 3000ft
5 / 8 km
1000 / 3000 ft
1500m / 5 km
500 / 1000 ft
800 / 1500m
200 / 500 ft
< 800m
< 200 ft
Simboli :   Temporali  Nebbia  Neve Forte  Precipitazioni Forti  Vento > 20 kt
SIGMETs :   Varie  Temporali  Ghiacco  Turbolenza  Onda orograficha  Ceneri Vulcaniche







- Altitudine del aeroporto : 466 ft


LHPA - Pápa

ULTIMO METAR :
  • 191615Z 36006KT CAVOK 21/02 Q1027 NOSIG RMK BLU

METARs OBSOLETI :
  • 191545Z 36006KT CAVOK 21/03 Q1027 NOSIG RMK BLU
  • 191515Z 33010KT 290V350 CAVOK 21/04 Q1027 NOSIG RMK BLU
  • 191445Z 32010KT CAVOK 21/04 Q1027 NOSIG RMK BLU
  • 191415Z 31010KT 270V330 CAVOK 21/05 Q1027 NOSIG RMK BLU
  • 191345Z 33008KT CAVOK 21/04 Q1028 NOSIG RMK BLU

TAF TAF LHPA
Valido dal 19 a 12 ore il 20 a 12 ore UTC


191115Z 1912/2012 33008KT CAVOK
TEMPO 1912/1916 9999 SCT040
BECMG 1916/1918 30004KT
BECMG 1919/1921 06006KT
BECMG 1923/2001 VRB02KT
TEMPO 2000/2006 8000 NSC
BECMG 2009/2011 35005KT
Nessun NOTAM noto per questo aeroporto.



MetMap, La meteo Aeronautica in un colpo d'occhio ! - Copyright ORBIFLY Dicembre 2007 - Disclaimer

ORBIFLY MET'MAP TEAM :

Programmazione e sviluppo : Alexandra Zaïnal
Concezione e sviluppo : Baudouin d'Aumeries
Co-Programmazione e sviluppo : Marc-Olivier Méhu
Supporto tecnico e logistico : Manuel Goepfert
Aiuto per la traduzione : Arnaldo La Scala

Contatto : metmap@orbifly.com




FONTI E CREDITI :

   NOAA